createdAt,value
2017-12-16T00:00:03.407Z,0.00
2017-12-16T00:01:09.417Z,0.00
2017-12-16T00:02:15.461Z,0.00
2017-12-16T00:03:21.538Z,0.00
2017-12-16T00:04:27.520Z,0.00
2017-12-16T00:05:33.590Z,0.00
2017-12-16T00:06:39.604Z,0.00
2017-12-16T00:07:45.657Z,0.00
2017-12-16T00:08:51.707Z,0.00
2017-12-16T00:09:57.761Z,0.00
2017-12-16T00:11:03.821Z,0.00
2017-12-16T00:12:09.831Z,0.00
2017-12-16T00:13:15.879Z,0.00
2017-12-16T00:14:21.907Z,0.00
2017-12-16T00:15:27.982Z,0.00
2017-12-16T00:16:34.009Z,0.00
2017-12-16T00:17:40.008Z,0.00
2017-12-16T00:18:46.148Z,0.00
2017-12-16T00:19:52.124Z,0.00
2017-12-16T00:20:58.174Z,0.00
2017-12-16T00:22:04.233Z,0.00
2017-12-16T00:23:10.258Z,0.00
2017-12-16T00:24:16.274Z,0.00
2017-12-16T00:25:22.376Z,0.00
2017-12-16T00:26:28.358Z,0.00
2017-12-16T00:27:34.405Z,0.00
2017-12-16T00:28:40.464Z,0.00
2017-12-16T00:29:46.500Z,0.00
2017-12-16T00:30:52.540Z,0.00
2017-12-16T00:31:58.595Z,0.00
2017-12-16T00:33:04.613Z,0.00
2017-12-16T00:34:10.646Z,0.00
2017-12-16T00:35:16.696Z,0.00
2017-12-16T00:36:22.723Z,0.00
2017-12-16T00:37:28.774Z,0.00
2017-12-16T00:38:34.823Z,0.00
2017-12-16T00:39:40.867Z,0.00
2017-12-16T00:40:46.932Z,0.00
2017-12-16T00:41:52.964Z,0.00
2017-12-16T00:42:58.971Z,0.00
2017-12-16T00:44:05.042Z,0.00
2017-12-16T00:45:11.061Z,0.00
2017-12-16T00:46:17.126Z,0.00
2017-12-16T00:47:23.149Z,0.00
2017-12-16T00:48:29.177Z,0.00
2017-12-16T00:49:35.200Z,0.00
2017-12-16T00:50:41.241Z,0.00
2017-12-16T00:51:47.308Z,0.00
2017-12-16T00:52:53.324Z,0.00
2017-12-16T00:53:59.417Z,0.00
2017-12-16T00:55:05.430Z,0.00
2017-12-16T00:56:11.481Z,0.00
2017-12-16T00:57:17.510Z,0.00
2017-12-16T00:58:23.539Z,0.00
2017-12-16T00:59:29.567Z,0.00
2017-12-16T01:00:35.612Z,0.00
2017-12-16T01:01:41.708Z,0.00
2017-12-16T01:02:47.704Z,0.00
2017-12-16T01:03:53.739Z,0.00
2017-12-16T01:04:59.820Z,0.00
2017-12-16T01:06:05.859Z,0.00
2017-12-16T01:07:11.917Z,0.00
2017-12-16T01:08:17.901Z,0.00
2017-12-16T01:09:23.944Z,0.00
2017-12-16T01:10:29.979Z,0.00
2017-12-16T01:11:36.012Z,0.00
2017-12-16T01:12:42.151Z,0.00
2017-12-16T01:13:48.134Z,0.00
2017-12-16T01:14:54.138Z,0.00
2017-12-16T01:16:00.191Z,0.00
2017-12-16T01:17:06.237Z,0.00
2017-12-16T01:18:12.256Z,0.00
2017-12-16T01:19:18.292Z,0.00
2017-12-16T01:20:24.334Z,0.00
2017-12-16T01:21:30.340Z,0.00
2017-12-16T01:22:36.429Z,0.00
2017-12-16T01:23:42.445Z,0.00
2017-12-16T01:24:48.487Z,0.00
2017-12-16T01:25:54.516Z,0.00
2017-12-16T01:27:00.563Z,0.00
2017-12-16T01:28:06.626Z,0.00
2017-12-16T01:29:12.619Z,0.00
2017-12-16T01:30:18.653Z,0.00
2017-12-16T01:31:24.711Z,0.00
2017-12-16T01:32:30.733Z,0.00
2017-12-16T01:33:36.773Z,0.00
2017-12-16T01:34:42.801Z,0.00
2017-12-16T01:35:48.823Z,0.00
2017-12-16T01:36:54.861Z,0.00
2017-12-16T01:38:00.928Z,0.00
2017-12-16T01:39:06.926Z,0.00
2017-12-16T01:40:12.976Z,0.00
2017-12-16T01:41:19.007Z,0.00
2017-12-16T01:42:25.035Z,0.00
2017-12-16T01:43:31.167Z,0.00
2017-12-16T01:44:37.112Z,0.00
2017-12-16T01:45:43.164Z,0.00
2017-12-16T01:46:49.229Z,0.00
2017-12-16T01:47:55.257Z,0.00
2017-12-16T01:49:01.329Z,0.00
2017-12-16T01:50:07.326Z,0.00
2017-12-16T01:51:13.393Z,0.00
2017-12-16T01:52:19.393Z,0.00
2017-12-16T01:53:25.470Z,0.00
2017-12-16T01:54:31.477Z,0.00
2017-12-16T01:55:37.493Z,0.00
2017-12-16T01:56:43.535Z,0.00
2017-12-16T01:57:49.574Z,0.00
2017-12-16T01:58:55.627Z,0.00
2017-12-16T02:00:01.652Z,0.00
2017-12-16T02:01:07.717Z,0.00
2017-12-16T02:02:13.701Z,0.00
2017-12-16T02:03:19.748Z,0.00
2017-12-16T02:04:25.792Z,0.00
2017-12-16T02:05:31.817Z,0.00
2017-12-16T02:06:37.837Z,0.00
2017-12-16T02:08:49.900Z,0.00
2017-12-16T02:09:55.459Z,0.00
2017-12-16T02:11:01.946Z,0.00
2017-12-16T02:12:07.945Z,0.00
2017-12-16T02:13:14.006Z,0.00
2017-12-16T02:14:20.145Z,0.00
2017-12-16T02:15:26.148Z,0.00
2017-12-16T02:16:32.124Z,0.00
2017-12-16T02:17:38.117Z,0.00
2017-12-16T02:18:44.153Z,0.00
2017-12-16T02:19:50.155Z,0.00
2017-12-16T02:20:56.157Z,0.00
2017-12-16T02:22:02.196Z,0.00
2017-12-16T02:23:08.198Z,0.00
2017-12-16T02:24:14.240Z,0.00
2017-12-16T02:25:20.245Z,0.00
2017-12-16T02:26:26.268Z,0.00
2017-12-16T02:27:32.285Z,0.00
2017-12-16T02:28:38.295Z,0.00
2017-12-16T02:29:44.313Z,0.00
2017-12-16T02:30:50.373Z,0.00
2017-12-16T02:31:56.316Z,0.00
2017-12-16T02:33:02.362Z,0.00
2017-12-16T02:34:08.416Z,0.00
2017-12-16T02:35:14.437Z,0.00
2017-12-16T02:36:20.400Z,0.00
2017-12-16T02:37:26.418Z,0.00
2017-12-16T02:38:32.438Z,0.00
2017-12-16T02:39:38.505Z,0.00
2017-12-16T02:40:44.463Z,0.00
2017-12-16T02:41:50.443Z,0.00
2017-12-16T02:42:56.461Z,0.00
2017-12-16T02:44:02.492Z,0.00
2017-12-16T02:45:08.509Z,0.00
2017-12-16T02:46:14.504Z,0.00
2017-12-16T02:47:20.532Z,0.00
2017-12-16T02:48:26.528Z,0.00
2017-12-16T02:49:32.530Z,0.00
2017-12-16T02:50:38.568Z,0.00
2017-12-16T02:51:44.564Z,0.00
2017-12-16T02:52:50.534Z,0.00
2017-12-16T02:53:56.539Z,0.00
2017-12-16T02:55:02.589Z,0.00
2017-12-16T02:56:08.566Z,0.00
2017-12-16T02:57:14.573Z,0.00
2017-12-16T02:58:20.550Z,0.00
2017-12-16T02:59:26.640Z,0.00
2017-12-16T03:00:32.577Z,0.00
2017-12-16T03:01:38.563Z,0.00
2017-12-16T03:02:44.546Z,0.00
2017-12-16T03:03:50.569Z,0.00
2017-12-16T03:04:56.550Z,0.00
2017-12-16T03:06:02.596Z,0.00
2017-12-16T03:07:08.548Z,0.00
2017-12-16T03:08:14.560Z,0.00
2017-12-16T03:09:20.589Z,0.00
2017-12-16T03:10:26.580Z,0.00
2017-12-16T03:11:32.562Z,0.00
2017-12-16T03:12:38.563Z,0.00
2017-12-16T03:13:44.563Z,0.00
2017-12-16T03:14:50.629Z,0.00
2017-12-16T03:15:56.205Z,0.00
2017-12-16T03:17:02.563Z,0.00
2017-12-16T03:18:08.568Z,0.00
2017-12-16T03:19:14.573Z,0.00
2017-12-16T03:20:20.587Z,0.00
2017-12-16T03:21:26.601Z,0.00
2017-12-16T03:22:32.613Z,0.00
2017-12-16T03:23:38.563Z,0.00
2017-12-16T03:24:44.582Z,0.00
2017-12-16T03:25:50.596Z,0.00
2017-12-16T03:26:56.598Z,0.00
2017-12-16T03:28:02.607Z,0.00
2017-12-16T03:29:08.605Z,0.00
2017-12-16T03:30:14.609Z,0.00
2017-12-16T03:31:20.645Z,0.00
2017-12-16T03:32:26.617Z,0.00
2017-12-16T03:33:32.634Z,0.00
2017-12-16T03:34:38.641Z,0.00
2017-12-16T03:35:44.652Z,0.00
2017-12-16T03:36:50.697Z,0.00
2017-12-16T03:37:56.710Z,0.00
2017-12-16T03:39:02.671Z,0.00
2017-12-16T03:40:08.676Z,0.00
2017-12-16T03:41:14.716Z,0.00
2017-12-16T03:42:20.705Z,0.00
2017-12-16T03:43:26.687Z,0.00
2017-12-16T03:44:32.735Z,0.00
2017-12-16T03:45:38.723Z,0.00
2017-12-16T03:46:44.756Z,0.00
2017-12-16T03:47:50.773Z,0.00
2017-12-16T03:48:56.759Z,0.00
2017-12-16T03:50:02.775Z,0.00
2017-12-16T03:51:08.789Z,0.00
2017-12-16T03:52:14.791Z,0.00
2017-12-16T03:53:20.824Z,0.00
2017-12-16T03:54:26.819Z,0.00
2017-12-16T03:55:32.828Z,0.00
2017-12-16T03:56:38.405Z,0.00
2017-12-16T03:57:44.849Z,0.00
2017-12-16T03:58:50.869Z,0.00
2017-12-16T03:59:56.867Z,0.00
2017-12-16T04:01:02.870Z,0.00
2017-12-16T04:02:08.925Z,0.00
2017-12-16T04:03:14.898Z,0.00
2017-12-16T04:04:20.896Z,0.00
2017-12-16T04:05:26.950Z,0.00
2017-12-16T04:06:32.930Z,0.00
2017-12-16T04:07:38.942Z,0.00
2017-12-16T04:08:44.927Z,0.00
2017-12-16T04:09:50.961Z,0.00
2017-12-16T04:10:57.011Z,0.00
2017-12-16T04:12:03.022Z,0.00
2017-12-16T04:13:08.980Z,0.00
2017-12-16T04:14:15.033Z,0.00
2017-12-16T04:15:21.004Z,0.00
2017-12-16T04:16:27.030Z,0.00
2017-12-16T04:17:33.002Z,0.00
2017-12-16T04:18:39.034Z,0.00
2017-12-16T04:19:45.047Z,0.00
2017-12-16T04:20:51.045Z,0.00
2017-12-16T04:21:57.095Z,0.00
2017-12-16T04:23:02.571Z,0.00
2017-12-16T04:24:09.097Z,0.00
2017-12-16T04:25:15.117Z,0.00
2017-12-16T04:26:21.261Z,0.00
2017-12-16T04:27:27.141Z,0.00
2017-12-16T04:28:33.148Z,0.00
2017-12-16T04:29:39.147Z,0.00
2017-12-16T04:30:45.170Z,0.00
2017-12-16T04:31:51.196Z,0.00
2017-12-16T04:32:57.192Z,0.00
2017-12-16T04:34:03.212Z,0.00
2017-12-16T04:35:09.215Z,0.00
2017-12-16T04:36:15.297Z,0.00
2017-12-16T04:37:20.774Z,0.00
2017-12-16T04:38:27.266Z,0.00
2017-12-16T04:39:33.264Z,0.00
2017-12-16T04:40:39.309Z,0.00
2017-12-16T04:41:45.332Z,0.00
2017-12-16T04:42:51.310Z,0.00
2017-12-16T04:43:57.342Z,0.00
2017-12-16T04:45:03.347Z,0.00
2017-12-16T04:46:08.858Z,0.00
2017-12-16T04:47:14.900Z,0.00
2017-12-16T04:48:21.410Z,0.00
2017-12-16T04:49:27.410Z,0.00
2017-12-16T04:50:33.403Z,0.00
2017-12-16T04:51:39.453Z,0.00
2017-12-16T04:52:45.471Z,0.00
2017-12-16T04:53:51.466Z,0.00
2017-12-16T04:54:57.506Z,0.00
2017-12-16T04:56:03.008Z,0.00
2017-12-16T04:57:09.539Z,0.00
2017-12-16T04:58:15.533Z,0.00
2017-12-16T04:59:21.531Z,0.00
2017-12-16T05:00:27.566Z,0.00
2017-12-16T05:01:33.098Z,0.00
2017-12-16T05:02:39.606Z,0.00
2017-12-16T05:03:45.116Z,0.00
2017-12-16T05:04:51.636Z,0.00
2017-12-16T05:05:57.649Z,0.00
2017-12-16T05:07:03.165Z,0.00
2017-12-16T05:08:09.683Z,0.00
2017-12-16T05:09:15.706Z,0.00
2017-12-16T05:10:21.707Z,0.00
2017-12-16T05:11:27.248Z,0.00
2017-12-16T05:12:33.806Z,0.00
2017-12-16T05:13:39.262Z,0.00
2017-12-16T05:14:45.786Z,0.00
2017-12-16T05:15:51.834Z,0.00
2017-12-16T05:16:57.311Z,0.00
2017-12-16T05:18:03.310Z,0.00
2017-12-16T05:19:09.327Z,0.00
2017-12-16T05:20:15.836Z,0.00
2017-12-16T05:21:21.855Z,0.00
2017-12-16T05:22:27.881Z,0.00
2017-12-16T05:23:33.851Z,0.00
2017-12-16T05:24:39.890Z,0.00
2017-12-16T05:25:45.894Z,0.00
2017-12-16T05:26:51.904Z,0.00
2017-12-16T05:27:57.894Z,0.00
2017-12-16T05:29:03.897Z,0.00
2017-12-16T05:30:09.906Z,0.00
2017-12-16T05:31:15.922Z,0.00
2017-12-16T05:32:21.963Z,0.00
2017-12-16T05:33:27.988Z,0.00
2017-12-16T05:34:33.976Z,0.00
2017-12-16T05:35:39.975Z,0.00
2017-12-16T05:36:46.011Z,0.00
2017-12-16T05:37:52.006Z,0.00
2017-12-16T05:38:58.015Z,0.00
2017-12-16T05:40:04.013Z,0.00
2017-12-16T05:41:10.154Z,0.00
2017-12-16T05:42:16.137Z,0.00
2017-12-16T05:43:22.110Z,0.00
2017-12-16T05:44:28.111Z,0.00
2017-12-16T05:45:34.152Z,0.00
2017-12-16T05:46:40.149Z,0.00
2017-12-16T05:47:46.134Z,0.00
2017-12-16T05:48:52.151Z,0.00
2017-12-16T05:49:57.687Z,0.00
2017-12-16T05:51:04.195Z,0.00
2017-12-16T05:52:10.224Z,0.00
2017-12-16T05:53:16.231Z,0.00
2017-12-16T05:54:22.246Z,0.00
2017-12-16T05:55:28.327Z,0.00
2017-12-16T05:56:34.311Z,0.00
2017-12-16T05:57:40.321Z,0.00
2017-12-16T05:58:46.312Z,0.00
2017-12-16T05:59:52.348Z,0.00
2017-12-16T06:00:58.368Z,0.00
2017-12-16T06:02:04.389Z,0.00
2017-12-16T06:03:09.894Z,0.00
2017-12-16T06:04:15.911Z,0.00
2017-12-16T06:05:22.456Z,0.00
2017-12-16T06:06:28.444Z,0.00
2017-12-16T06:07:34.495Z,0.00
2017-12-16T06:08:40.520Z,0.00
2017-12-16T06:09:46.497Z,0.00
2017-12-16T06:10:52.529Z,0.00
2017-12-16T06:11:58.562Z,0.00
2017-12-16T06:13:04.649Z,0.00
2017-12-16T06:14:10.098Z,0.00
2017-12-16T06:15:16.623Z,0.00
2017-12-16T06:16:22.621Z,0.00
2017-12-16T06:17:28.680Z,0.00
2017-12-16T06:18:34.676Z,0.00
2017-12-16T06:19:40.694Z,0.00
2017-12-16T06:20:46.727Z,0.00
2017-12-16T06:21:52.748Z,0.00
2017-12-16T06:22:58.770Z,0.00
2017-12-16T06:24:04.793Z,0.00
2017-12-16T06:25:10.819Z,0.00
2017-12-16T06:26:16.809Z,0.00
2017-12-16T06:27:22.868Z,0.00
2017-12-16T06:28:28.875Z,0.00
2017-12-16T06:29:34.860Z,0.00
2017-12-16T06:30:40.909Z,0.00
2017-12-16T06:31:46.942Z,0.00
2017-12-16T06:32:52.462Z,0.00
2017-12-16T06:33:58.953Z,0.00
2017-12-16T06:35:04.974Z,0.00
2017-12-16T06:36:10.984Z,0.00
2017-12-16T06:37:17.096Z,0.00
2017-12-16T06:38:23.019Z,0.00
2017-12-16T06:39:28.581Z,0.00
2017-12-16T06:40:35.149Z,0.00
2017-12-16T06:41:41.094Z,0.00
2017-12-16T06:42:47.124Z,0.00
2017-12-16T06:43:52.683Z,0.00
2017-12-16T06:44:59.165Z,0.00
2017-12-16T06:46:05.160Z,0.00
2017-12-16T06:47:10.728Z,0.00
2017-12-16T06:48:17.218Z,0.00
2017-12-16T06:49:23.231Z,4.00
2017-12-16T06:50:29.249Z,4.00
2017-12-16T06:51:35.317Z,4.00
2017-12-16T06:52:41.339Z,0.00
2017-12-16T06:53:47.358Z,4.00
2017-12-16T06:54:53.370Z,4.00
2017-12-16T06:55:59.368Z,4.00
2017-12-16T06:57:05.428Z,4.00
2017-12-16T06:58:11.427Z,8.00
2017-12-16T06:59:17.468Z,8.00
2017-12-16T07:00:23.482Z,8.00
2017-12-16T07:01:29.499Z,12.00
2017-12-16T07:02:35.546Z,12.00
2017-12-16T07:03:41.542Z,16.00
2017-12-16T07:04:47.605Z,16.00
2017-12-16T07:05:53.636Z,20.00
2017-12-16T07:06:59.721Z,24.00
2017-12-16T07:08:05.656Z,28.00
2017-12-16T07:09:11.704Z,32.00
2017-12-16T07:10:17.728Z,40.00
2017-12-16T07:11:23.731Z,48.00
2017-12-16T07:12:29.792Z,56.00
2017-12-16T07:13:35.795Z,64.00
2017-12-16T07:14:41.323Z,72.00
2017-12-16T07:15:47.879Z,80.00
2017-12-16T07:16:53.902Z,100.00
2017-12-16T07:17:59.915Z,116.00
2017-12-16T07:19:05.945Z,132.00
2017-12-16T07:20:11.982Z,148.00
2017-12-16T07:21:17.519Z,156.00
2017-12-16T07:22:24.142Z,164.00
2017-12-16T07:23:30.139Z,172.00
2017-12-16T07:24:36.126Z,184.00
2017-12-16T07:25:41.702Z,188.00
2017-12-16T07:26:48.170Z,192.00
2017-12-16T07:27:54.230Z,196.00
2017-12-16T07:29:00.245Z,212.00
2017-12-16T07:30:06.327Z,236.00
2017-12-16T07:31:12.303Z,256.00
2017-12-16T07:32:18.364Z,272.00
2017-12-16T07:33:24.358Z,288.00
2017-12-16T07:34:30.412Z,292.00
2017-12-16T07:35:36.435Z,292.00
2017-12-16T07:36:42.480Z,300.00
2017-12-16T07:37:48.548Z,312.00
2017-12-16T07:38:54.575Z,320.00
2017-12-16T07:40:00.577Z,340.00
2017-12-16T07:41:06.606Z,364.00
2017-12-16T07:42:12.172Z,384.00
2017-12-16T07:43:18.701Z,392.00
2017-12-16T07:44:24.713Z,408.00
2017-12-16T07:45:30.768Z,424.00
2017-12-16T07:46:36.818Z,432.00
2017-12-16T07:47:42.853Z,440.00
2017-12-16T07:48:48.919Z,444.00
2017-12-16T07:49:54.972Z,432.00
2017-12-16T07:51:00.946Z,440.00
2017-12-16T07:52:07.008Z,444.00
2017-12-16T07:53:13.051Z,452.00
2017-12-16T07:54:19.140Z,492.00
2017-12-16T07:55:25.151Z,548.00
2017-12-16T07:56:31.206Z,596.00
2017-12-16T07:57:37.218Z,632.00
2017-12-16T07:58:43.288Z,644.00
2017-12-16T07:59:49.280Z,656.00
2017-12-16T08:00:55.340Z,664.00
2017-12-16T08:02:01.379Z,624.00
2017-12-16T08:03:07.440Z,600.00
2017-12-16T08:04:13.489Z,672.00
2017-12-16T08:05:19.487Z,776.00
2017-12-16T08:06:25.535Z,828.00
2017-12-16T08:07:31.568Z,960.00
2017-12-16T08:08:37.633Z,1052.00
2017-12-16T08:09:43.674Z,1088.00
2017-12-16T08:10:49.225Z,1200.00
2017-12-16T08:11:55.784Z,1360.00
2017-12-16T08:13:01.832Z,1552.00
2017-12-16T08:14:07.894Z,1912.00
2017-12-16T08:15:13.901Z,2120.00
2017-12-16T08:16:19.956Z,2304.00
2017-12-16T08:17:26.002Z,2072.00
2017-12-16T08:18:32.167Z,2032.00
2017-12-16T08:19:38.156Z,2140.00
2017-12-16T08:20:44.174Z,2372.00
2017-12-16T08:21:50.222Z,2640.00
2017-12-16T08:22:57.295Z,2720.00
2017-12-16T08:25:08.408Z,2624.00
2017-12-16T08:26:14.002Z,2792.00
2017-12-16T08:27:20.507Z,2964.00
2017-12-16T08:28:26.705Z,3360.00
2017-12-16T08:29:32.155Z,3700.00
2017-12-16T08:30:39.176Z,3832.00
2017-12-16T08:31:44.967Z,3960.00
2017-12-16T08:32:50.863Z,3672.00
2017-12-16T08:33:56.540Z,3744.00
2017-12-16T08:35:02.984Z,3892.00
2017-12-16T08:36:09.030Z,3836.00
2017-12-16T08:37:15.104Z,3908.00
2017-12-16T08:38:22.639Z,3872.00
2017-12-16T08:39:27.277Z,3732.00
2017-12-16T08:40:33.323Z,3792.00
2017-12-16T08:41:39.410Z,3736.00
2017-12-16T08:42:45.708Z,3672.00
2017-12-16T08:43:52.654Z,3764.00
2017-12-16T08:44:57.668Z,3992.00
2017-12-16T08:46:03.682Z,4004.00
2017-12-16T08:47:09.784Z,4104.00
2017-12-16T08:48:15.861Z,4832.00
2017-12-16T08:49:21.942Z,5132.00
2017-12-16T08:50:28.014Z,4964.00
2017-12-16T08:51:34.117Z,5244.00
2017-12-16T08:52:40.189Z,5040.00
2017-12-16T08:53:46.245Z,4940.00
2017-12-16T08:54:52.356Z,4944.00
2017-12-16T08:55:58.423Z,5232.00
2017-12-16T08:57:04.510Z,5388.00
2017-12-16T08:58:10.624Z,5312.00
2017-12-16T08:59:16.683Z,5044.00
2017-12-16T09:00:22.794Z,5156.00
2017-12-16T09:01:28.847Z,5424.00
2017-12-16T09:02:34.979Z,5648.00
2017-12-16T09:03:41.079Z,5800.00
2017-12-16T09:04:46.651Z,5764.00
2017-12-16T09:05:52.735Z,5592.00
2017-12-16T09:06:59.314Z,5724.00
2017-12-16T09:08:06.400Z,5672.00
2017-12-16T09:09:11.501Z,5284.00
2017-12-16T09:10:17.626Z,4988.00
2017-12-16T09:11:23.696Z,4752.00
2017-12-16T09:12:29.810Z,4528.00
2017-12-16T09:13:35.919Z,4660.00
2017-12-16T09:14:42.295Z,4904.00
2017-12-16T09:15:47.638Z,4852.00
2017-12-16T09:16:54.180Z,4532.00
2017-12-16T09:17:59.782Z,4072.00
2017-12-16T09:19:06.369Z,3532.00
2017-12-16T09:20:12.492Z,3216.00
2017-12-16T09:21:18.560Z,2900.00
2017-12-16T09:22:24.659Z,2724.00
2017-12-16T09:23:30.743Z,2648.00
2017-12-16T09:24:36.373Z,2596.00
2017-12-16T09:25:42.968Z,2600.00
2017-12-16T09:26:49.040Z,2592.00
2017-12-16T09:27:54.629Z,2472.00
2017-12-16T09:29:00.704Z,2340.00
2017-12-16T09:30:06.808Z,2356.00
2017-12-16T09:31:13.426Z,2508.00
2017-12-16T09:32:18.971Z,2672.00
2017-12-16T09:33:25.576Z,2820.00
2017-12-16T09:34:31.143Z,2880.00
2017-12-16T09:35:37.742Z,2832.00
2017-12-16T09:36:43.825Z,2640.00
2017-12-16T09:37:49.408Z,2448.00
2017-12-16T09:38:55.997Z,2476.00
2017-12-16T09:40:01.606Z,2640.00
2017-12-16T09:41:08.184Z,2652.00
2017-12-16T09:42:13.742Z,2604.00
2017-12-16T09:43:20.349Z,2428.00
2017-12-16T09:44:26.417Z,2072.00
2017-12-16T09:45:32.524Z,1956.00
2017-12-16T09:46:39.613Z,1920.00
2017-12-16T09:47:44.674Z,1972.00
2017-12-16T09:48:50.269Z,2052.00
2017-12-16T09:49:56.352Z,2088.00
2017-12-16T09:51:02.946Z,1928.00
2017-12-16T09:52:08.522Z,1828.00
2017-12-16T09:53:15.111Z,1968.00
2017-12-16T09:54:21.180Z,2228.00
2017-12-16T09:55:26.769Z,2500.00
2017-12-16T09:56:33.361Z,2704.00
2017-12-16T09:57:40.423Z,2756.00
2017-12-16T09:58:45.522Z,2756.00
2017-12-16T09:59:51.590Z,2576.00
2017-12-16T10:00:57.193Z,2340.00
2017-12-16T10:02:03.366Z,2144.00
2017-12-16T10:03:09.856Z,1976.00
2017-12-16T10:04:15.434Z,1820.00
2017-12-16T10:05:22.121Z,1720.00
2017-12-16T10:06:27.630Z,1732.00
2017-12-16T10:07:34.191Z,2240.00
2017-12-16T10:08:40.279Z,3060.00
2017-12-16T10:09:45.849Z,3644.00
2017-12-16T10:10:51.947Z,3248.00
2017-12-16T10:11:58.158Z,3412.00
2017-12-16T10:13:04.104Z,3856.00
2017-12-16T10:14:10.200Z,4048.00
2017-12-16T10:15:16.289Z,4096.00
2017-12-16T10:16:22.371Z,4056.00
2017-12-16T10:17:28.488Z,4012.00
2017-12-16T10:18:34.562Z,4024.00
2017-12-16T10:19:41.169Z,4020.00
2017-12-16T10:20:47.231Z,4100.00
2017-12-16T10:21:53.342Z,4432.00
2017-12-16T10:22:58.930Z,4868.00
2017-12-16T10:24:05.018Z,5392.00
2017-12-16T10:25:11.614Z,5668.00
2017-12-16T10:26:17.709Z,5884.00
2017-12-16T10:27:23.844Z,5692.00
2017-12-16T10:28:29.899Z,5212.00
2017-12-16T10:29:36.128Z,5016.00
2017-12-16T10:30:42.114Z,4800.00
2017-12-16T10:31:48.230Z,4472.00
2017-12-16T10:32:54.332Z,4628.00
2017-12-16T10:33:59.940Z,5340.00
2017-12-16T10:35:06.512Z,6504.00
2017-12-16T10:36:12.644Z,6564.00
2017-12-16T10:37:18.768Z,6460.00
2017-12-16T10:38:24.330Z,6880.00
2017-12-16T10:39:30.432Z,6708.00
2017-12-16T10:40:37.028Z,6552.00
2017-12-16T10:41:43.148Z,6980.00
2017-12-16T10:42:49.257Z,6856.00
2017-12-16T10:43:55.357Z,7280.00
2017-12-16T10:45:00.962Z,7572.00
2017-12-16T10:46:07.583Z,7652.00
2017-12-16T10:47:13.687Z,7936.00
2017-12-16T10:48:19.359Z,7644.00
2017-12-16T10:49:25.411Z,7396.00
2017-12-16T10:50:32.116Z,7532.00
2017-12-16T10:51:37.646Z,6844.00
2017-12-16T10:52:43.780Z,5980.00
2017-12-16T10:53:49.859Z,5884.00
2017-12-16T10:54:55.986Z,6028.00
2017-12-16T10:56:02.099Z,6048.00
2017-12-16T10:57:08.206Z,5312.00
2017-12-16T10:58:14.847Z,4984.00
2017-12-16T10:59:20.428Z,4612.00
2017-12-16T11:00:26.544Z,4432.00
2017-12-16T11:01:32.699Z,4556.00
2017-12-16T11:02:39.268Z,4560.00
2017-12-16T11:03:45.365Z,5164.00
2017-12-16T11:04:51.455Z,5812.00
2017-12-16T11:05:57.568Z,6272.00
2017-12-16T11:07:03.189Z,7996.00
2017-12-16T11:08:09.809Z,8036.00
2017-12-16T11:09:15.898Z,8168.00
2017-12-16T11:10:22.012Z,8040.00
2017-12-16T11:11:28.157Z,7572.00
2017-12-16T11:12:34.211Z,6904.00
2017-12-16T11:13:40.355Z,6756.00
2017-12-16T11:14:45.958Z,5544.00
2017-12-16T11:15:52.541Z,4872.00
2017-12-16T11:16:58.180Z,4624.00
2017-12-16T11:18:05.285Z,4888.00
2017-12-16T11:19:10.882Z,5992.00
2017-12-16T11:20:16.999Z,6680.00
2017-12-16T11:21:22.609Z,7364.00
2017-12-16T11:22:28.723Z,7656.00
2017-12-16T11:23:35.341Z,7124.00
2017-12-16T11:24:40.953Z,6808.00
2017-12-16T11:25:48.550Z,6444.00
2017-12-16T11:26:53.173Z,5712.00
2017-12-16T11:27:59.824Z,4820.00
2017-12-16T11:29:05.421Z,4428.00
2017-12-16T11:30:11.536Z,4460.00
2017-12-16T11:31:18.148Z,4648.00
2017-12-16T11:32:23.767Z,4584.00
2017-12-16T11:33:29.934Z,4508.00
2017-12-16T11:34:36.491Z,4452.00
2017-12-16T11:35:42.114Z,4608.00
2017-12-16T11:36:48.213Z,4904.00
2017-12-16T11:37:54.337Z,4816.00
2017-12-16T11:39:01.002Z,4848.00
2017-12-16T11:40:07.059Z,4948.00
2017-12-16T11:41:12.680Z,4800.00
2017-12-16T11:42:18.799Z,4552.00
2017-12-16T11:43:25.426Z,4228.00
2017-12-16T11:44:31.016Z,4468.00
2017-12-16T11:45:37.119Z,4112.00
2017-12-16T11:46:43.732Z,3860.00
2017-12-16T11:47:49.839Z,4112.00
2017-12-16T11:48:55.959Z,4384.00
2017-12-16T11:50:02.110Z,4404.00
2017-12-16T11:51:08.167Z,4684.00
2017-12-16T11:52:13.764Z,4904.00
2017-12-16T11:53:19.880Z,5220.00
2017-12-16T11:54:27.455Z,5772.00
2017-12-16T11:55:32.066Z,5800.00
2017-12-16T11:56:38.674Z,5680.00
2017-12-16T11:57:44.781Z,5828.00
2017-12-16T11:58:50.909Z,5712.00
2017-12-16T11:59:56.494Z,5448.00
2017-12-16T12:01:03.098Z,5128.00
2017-12-16T12:02:08.713Z,5696.00
2017-12-16T12:03:14.828Z,4848.00
2017-12-16T12:04:22.407Z,5112.00
2017-12-16T12:05:27.528Z,5052.00
2017-12-16T12:06:33.138Z,5248.00
2017-12-16T12:07:39.245Z,5208.00
2017-12-16T12:08:45.871Z,4976.00
2017-12-16T12:09:51.444Z,5460.00
2017-12-16T12:10:58.110Z,5308.00
2017-12-16T12:12:03.669Z,5024.00
2017-12-16T12:13:09.787Z,5172.00
2017-12-16T12:14:15.883Z,5320.00
2017-12-16T12:15:22.485Z,4412.00
2017-12-16T12:16:28.595Z,3912.00
2017-12-16T12:17:34.215Z,4768.00
2017-12-16T12:18:40.336Z,6040.00
2017-12-16T12:19:46.944Z,7080.00
2017-12-16T12:20:53.085Z,7036.00
2017-12-16T12:21:58.662Z,6708.00
2017-12-16T12:23:05.315Z,7124.00
2017-12-16T12:24:10.932Z,6768.00
2017-12-16T12:25:17.527Z,6056.00
2017-12-16T12:26:23.160Z,5572.00
2017-12-16T12:27:29.293Z,4840.00
2017-12-16T12:28:35.915Z,5228.00
2017-12-16T12:29:41.508Z,5252.00
2017-12-16T12:30:47.641Z,5980.00
2017-12-16T12:31:54.249Z,6460.00
2017-12-16T12:32:59.871Z,6976.00
2017-12-16T12:34:06.029Z,7524.00
2017-12-16T12:35:12.620Z,7628.00
2017-12-16T12:36:18.730Z,6328.00
2017-12-16T12:37:24.367Z,6048.00
2017-12-16T12:38:30.521Z,5292.00
2017-12-16T12:39:36.611Z,4928.00
2017-12-16T12:40:42.741Z,4724.00
2017-12-16T12:41:49.373Z,4392.00
2017-12-16T12:42:54.995Z,4060.00
2017-12-16T12:44:01.135Z,4064.00
2017-12-16T12:45:07.229Z,4124.00
2017-12-16T12:46:13.364Z,3932.00
2017-12-16T12:47:20.019Z,3940.00
2017-12-16T12:48:25.606Z,3920.00
2017-12-16T12:49:31.724Z,4380.00
2017-12-16T12:50:37.833Z,4772.00
2017-12-16T12:51:43.947Z,5020.00
2017-12-16T12:52:50.556Z,5312.00
2017-12-16T12:53:56.718Z,5456.00
2017-12-16T12:55:02.280Z,5400.00
2017-12-16T12:56:08.408Z,5508.00
2017-12-16T12:57:15.021Z,4944.00
2017-12-16T12:58:21.660Z,4776.00
2017-12-16T12:59:26.749Z,4720.00
2017-12-16T13:00:33.342Z,5076.00
2017-12-16T13:01:39.462Z,5216.00
2017-12-16T13:02:45.090Z,6876.00
2017-12-16T13:03:51.699Z,6816.00
2017-12-16T13:04:57.785Z,6752.00
2017-12-16T13:06:03.895Z,6612.00
2017-12-16T13:07:09.532Z,6588.00
2017-12-16T13:08:15.654Z,6968.00
2017-12-16T13:09:21.770Z,6816.00
2017-12-16T13:10:27.882Z,7144.00
2017-12-16T13:11:34.530Z,6824.00
2017-12-16T13:12:40.121Z,6640.00
2017-12-16T13:13:46.775Z,6984.00
2017-12-16T13:14:52.887Z,7000.00
2017-12-16T13:15:59.016Z,7436.00
2017-12-16T13:17:05.138Z,7968.00
2017-12-16T13:18:11.285Z,8356.00
2017-12-16T13:19:17.431Z,7464.00
2017-12-16T13:20:23.604Z,5304.00
2017-12-16T13:21:29.688Z,4944.00
2017-12-16T13:22:35.833Z,4904.00
2017-12-16T13:23:42.064Z,4800.00
2017-12-16T13:24:48.108Z,5136.00
2017-12-16T13:25:54.208Z,5192.00
2017-12-16T13:27:00.355Z,4952.00
2017-12-16T13:28:06.476Z,5008.00
2017-12-16T13:29:12.177Z,5744.00
2017-12-16T13:30:18.765Z,5840.00
2017-12-16T13:31:24.899Z,5476.00
2017-12-16T13:32:31.038Z,5032.00
2017-12-16T13:33:36.671Z,4732.00
2017-12-16T13:34:43.316Z,4484.00
2017-12-16T13:35:49.422Z,4268.00
2017-12-16T13:36:55.559Z,4456.00
2017-12-16T13:38:01.717Z,4320.00
2017-12-16T13:39:07.842Z,4308.00
2017-12-16T13:40:13.947Z,4524.00
2017-12-16T13:41:20.112Z,4476.00
2017-12-16T13:42:26.198Z,4672.00
2017-12-16T13:43:32.369Z,5040.00
2017-12-16T13:44:38.484Z,5056.00
2017-12-16T13:45:44.611Z,5104.00
2017-12-16T13:46:50.797Z,5268.00
2017-12-16T13:47:56.878Z,5228.00
2017-12-16T13:49:03.012Z,5160.00
2017-12-16T13:50:09.129Z,5484.00
2017-12-16T13:51:15.559Z,5344.00
2017-12-16T13:52:21.396Z,5364.00
2017-12-16T13:53:27.542Z,5424.00
2017-12-16T13:54:33.686Z,5064.00
2017-12-16T13:55:39.782Z,5700.00
2017-12-16T13:56:45.928Z,5348.00
2017-12-16T13:57:52.113Z,5044.00
2017-12-16T13:58:58.228Z,4876.00
2017-12-16T14:00:04.316Z,4420.00
2017-12-16T14:01:09.955Z,3820.00